createdAt,value
2019-05-09T00:04:54.799Z,13.60
2019-05-09T00:09:53.441Z,13.70
2019-05-09T00:14:49.044Z,13.70
2019-05-09T00:19:44.680Z,13.70
2019-05-09T00:24:40.304Z,13.70
2019-05-09T00:29:43.953Z,13.70
2019-05-09T00:34:47.016Z,13.70
2019-05-09T00:39:43.449Z,13.70
2019-05-09T00:44:40.708Z,13.70
2019-05-09T00:49:36.262Z,13.70
2019-05-09T00:54:33.505Z,13.60
2019-05-09T00:59:30.084Z,13.60
2019-05-09T01:04:26.320Z,13.40
2019-05-09T01:09:24.028Z,13.20
2019-05-09T01:14:19.238Z,12.70
2019-05-09T01:19:15.864Z,12.80
2019-05-09T01:24:13.738Z,13.20
2019-05-09T01:29:08.944Z,13.30
2019-05-09T01:34:13.403Z,13.50
2019-05-09T01:39:09.196Z,13.40
2019-05-09T01:44:04.762Z,13.40
2019-05-09T01:49:00.416Z,13.40
2019-05-09T01:53:56.076Z,13.50
2019-05-09T01:58:53.744Z,13.50
2019-05-09T02:03:48.865Z,13.50
2019-05-09T02:08:44.537Z,13.50
2019-05-09T02:13:40.372Z,13.50
2019-05-09T02:18:43.964Z,13.50
2019-05-09T02:23:39.041Z,13.50
2019-05-09T02:28:34.593Z,13.50
2019-05-09T02:33:30.171Z,13.50
2019-05-09T02:38:28.693Z,13.50
2019-05-09T02:43:23.388Z,13.50
2019-05-09T02:48:19.043Z,13.50
2019-05-09T02:53:14.598Z,13.50
2019-05-09T02:58:11.740Z,13.40
2019-05-09T03:03:21.620Z,13.50
2019-05-09T03:08:19.171Z,13.50
2019-05-09T03:13:14.524Z,13.40
2019-05-09T03:18:10.292Z,13.40
2019-05-09T03:23:08.741Z,13.20
2019-05-09T03:28:09.702Z,12.90
2019-05-09T03:33:03.434Z,12.40
2019-05-09T03:38:08.173Z,12.00
2019-05-09T03:43:03.681Z,11.90
2019-05-09T03:48:00.545Z,11.80
2019-05-09T03:52:57.951Z,11.80
2019-05-09T03:58:07.349Z,11.70
2019-05-09T04:03:02.228Z,11.70
2019-05-09T04:08:18.208Z,11.60
2019-05-09T04:13:15.101Z,11.50
2019-05-09T04:18:10.720Z,11.50
2019-05-09T04:23:07.932Z,11.30
2019-05-09T04:28:07.359Z,11.10
2019-05-09T04:33:02.486Z,10.90
2019-05-09T04:37:58.292Z,10.70
2019-05-09T04:43:07.195Z,10.70
2019-05-09T04:47:50.852Z,10.70
2019-05-09T04:52:48.071Z,10.70
2019-05-09T04:57:43.714Z,10.70
2019-05-09T05:02:45.886Z,10.70
2019-05-09T05:07:41.637Z,10.70
2019-05-09T05:12:38.093Z,10.70
2019-05-09T05:17:33.826Z,10.70
2019-05-09T05:22:43.947Z,10.60
2019-05-09T05:27:40.160Z,10.50
2019-05-09T05:32:54.719Z,10.40
2019-05-09T05:37:50.569Z,10.30
2019-05-09T05:42:47.780Z,10.30
2019-05-09T05:47:51.025Z,10.30
2019-05-09T05:52:47.545Z,10.30
2019-05-09T05:57:43.277Z,10.30
2019-05-09T06:02:38.986Z,10.30
2019-05-09T06:07:34.646Z,10.30
2019-05-09T06:12:31.201Z,10.40
2019-05-09T06:17:28.655Z,10.60
2019-05-09T06:22:24.209Z,10.60
2019-05-09T06:27:19.905Z,10.60
2019-05-09T06:32:15.573Z,10.50
2019-05-09T06:37:11.274Z,10.50
2019-05-09T06:42:08.875Z,10.50
2019-05-09T06:47:09.702Z,10.50
2019-05-09T06:52:05.418Z,10.50
2019-05-09T06:57:01.117Z,10.60
2019-05-09T07:02:02.410Z,10.70
2019-05-09T07:07:02.413Z,10.70
2019-05-09T07:11:58.744Z,10.70
2019-05-09T07:16:54.450Z,10.70
2019-05-09T07:22:10.260Z,10.80
2019-05-09T07:27:07.406Z,11.00
2019-05-09T07:32:09.673Z,11.00
2019-05-09T07:37:05.330Z,11.10
2019-05-09T07:42:01.070Z,11.10
2019-05-09T07:47:01.306Z,11.10
2019-05-09T07:51:59.097Z,11.10
2019-05-09T07:56:54.145Z,11.10
2019-05-09T08:01:49.833Z,11.10
2019-05-09T08:06:45.419Z,11.10
2019-05-09T08:11:41.009Z,11.10
2019-05-09T08:16:37.918Z,11.10
2019-05-09T08:21:33.780Z,11.20
2019-05-09T08:26:30.091Z,11.20
2019-05-09T08:31:27.886Z,11.30
2019-05-09T08:36:24.189Z,11.40
2019-05-09T08:41:19.952Z,11.40
2019-05-09T08:46:17.878Z,11.40
2019-05-09T08:51:41.303Z,11.50
2019-05-09T08:56:32.663Z,11.60
2019-05-09T09:01:45.609Z,11.70
2019-05-09T09:06:27.833Z,11.80
2019-05-09T09:11:23.124Z,11.90
2019-05-09T09:16:22.235Z,12.00
2019-05-09T09:21:18.300Z,12.00
2019-05-09T09:26:13.390Z,12.10
2019-05-09T09:31:09.053Z,12.20
2019-05-09T09:36:04.710Z,12.30
2019-05-09T09:41:00.501Z,12.30
2019-05-09T09:46:10.135Z,12.30
2019-05-09T09:50:53.465Z,12.30
2019-05-09T09:55:49.150Z,12.40
2019-05-09T10:01:03.954Z,12.50
2019-05-09T10:05:59.877Z,12.50
2019-05-09T10:10:55.519Z,12.30
2019-05-09T10:16:25.541Z,12.20
2019-05-09T10:21:14.570Z,12.00
2019-05-09T10:26:10.265Z,12.10
2019-05-09T10:31:05.969Z,12.20
2019-05-09T10:36:04.091Z,12.30
2019-05-09T10:41:01.219Z,12.40
2019-05-09T10:46:18.470Z,12.40
2019-05-09T10:51:12.596Z,12.50
2019-05-09T10:56:08.860Z,12.40
2019-05-09T11:01:09.065Z,12.40
2019-05-09T11:06:08.526Z,12.30
2019-05-09T11:11:10.361Z,12.10
2019-05-09T11:16:07.708Z,12.20
2019-05-09T11:21:03.441Z,12.10
2019-05-09T11:25:59.130Z,12.10
2019-05-09T11:30:54.784Z,12.30
2019-05-09T11:35:50.398Z,12.40
2019-05-09T11:40:48.201Z,12.50
2019-05-09T11:45:43.278Z,12.40
2019-05-09T11:50:38.950Z,12.50
2019-05-09T11:55:39.442Z,12.70
2019-05-09T12:00:32.919Z,12.70
2019-05-09T12:05:28.948Z,12.80
2019-05-09T12:10:24.601Z,12.80
2019-05-09T12:15:20.277Z,12.90
2019-05-09T12:20:18.048Z,13.20
2019-05-09T12:25:13.689Z,13.10
2019-05-09T12:30:10.155Z,13.00
2019-05-09T12:35:08.663Z,12.90
2019-05-09T12:40:03.463Z,12.80
2019-05-09T12:44:59.206Z,13.10
2019-05-09T12:49:54.956Z,13.40
2019-05-09T12:54:50.621Z,13.50
2019-05-09T12:59:49.831Z,13.50
2019-05-09T13:04:47.609Z,13.60
2019-05-09T13:09:43.299Z,13.70
2019-05-09T13:14:39.070Z,13.90
2019-05-09T13:19:40.178Z,13.90
2019-05-09T13:24:37.881Z,14.00
2019-05-09T13:29:34.071Z,14.10
2019-05-09T13:34:41.775Z,14.20
2019-05-09T13:39:39.468Z,14.20
2019-05-09T13:44:40.605Z,14.30
2019-05-09T13:49:36.014Z,14.20
2019-05-09T13:54:31.724Z,14.20
2019-05-09T13:59:30.007Z,14.20
2019-05-09T14:04:24.781Z,14.20
2019-05-09T14:09:20.690Z,14.20
2019-05-09T14:14:17.814Z,14.20
2019-05-09T14:19:29.903Z,14.10
2019-05-09T14:24:14.855Z,14.20
2019-05-09T14:29:04.704Z,14.20
2019-05-09T14:34:00.402Z,14.20
2019-05-09T14:38:57.996Z,14.20
2019-05-09T14:43:53.450Z,14.30
2019-05-09T14:48:51.612Z,14.40
2019-05-09T14:53:48.580Z,14.60
2019-05-09T14:58:44.389Z,14.70
2019-05-09T15:03:40.070Z,15.00
2019-05-09T15:08:38.024Z,15.30
2019-05-09T15:13:33.085Z,15.80
2019-05-09T15:18:28.814Z,16.00
2019-05-09T15:23:24.546Z,16.20
2019-05-09T15:28:20.269Z,16.30
2019-05-09T15:33:17.573Z,16.50
2019-05-09T15:38:13.545Z,16.70
2019-05-09T15:43:09.270Z,16.90
2019-05-09T15:48:04.996Z,17.20
2019-05-09T15:53:02.324Z,17.60
2019-05-09T15:57:58.006Z,17.80
2019-05-09T16:02:53.704Z,18.00
2019-05-09T16:07:49.484Z,18.30
2019-05-09T16:12:45.410Z,18.60
2019-05-09T16:17:41.161Z,18.90
2019-05-09T16:22:39.256Z,18.80
2019-05-09T16:27:35.046Z,18.60
2019-05-09T16:32:31.559Z,18.80
2019-05-09T16:37:28.350Z,18.50
2019-05-09T16:42:24.242Z,17.90
2019-05-09T16:47:21.931Z,17.30
2019-05-09T16:52:17.959Z,16.90
2019-05-09T16:57:13.805Z,16.90
2019-05-09T17:02:21.731Z,17.00
2019-05-09T17:07:08.391Z,17.00
2019-05-09T17:12:04.334Z,16.50
2019-05-09T17:17:00.198Z,15.80
2019-05-09T17:22:11.624Z,15.40
2019-05-09T17:27:08.713Z,15.60
2019-05-09T17:32:07.759Z,18.30
2019-05-09T17:37:03.921Z,20.40
2019-05-09T17:41:59.666Z,21.00
2019-05-09T17:46:57.764Z,19.30
2019-05-09T17:51:52.719Z,17.10
2019-05-09T17:56:48.588Z,15.80
2019-05-09T18:01:44.298Z,14.80
2019-05-09T18:06:40.398Z,14.30
2019-05-09T18:11:37.718Z,14.00
2019-05-09T18:16:35.212Z,13.50
2019-05-09T18:21:30.959Z,13.20
2019-05-09T18:26:27.535Z,12.90
2019-05-09T18:31:24.886Z,12.60
2019-05-09T18:36:20.604Z,12.40
2019-05-09T18:41:17.760Z,12.20
2019-05-09T18:46:17.527Z,12.00
2019-05-09T18:51:13.909Z,11.80
2019-05-09T18:56:09.616Z,11.60
2019-05-09T19:01:05.582Z,11.40
2019-05-09T19:06:03.062Z,11.20
2019-05-09T19:10:58.805Z,11.10
2019-05-09T19:16:07.776Z,10.90
2019-05-09T19:21:08.712Z,10.80
2019-05-09T19:26:27.465Z,10.60
2019-05-09T19:31:23.177Z,10.60
2019-05-09T19:36:18.912Z,10.40
2019-05-09T19:41:14.556Z,10.30
2019-05-09T19:46:11.238Z,10.20
2019-05-09T19:51:07.539Z,10.10
2019-05-09T19:56:04.032Z,10.00
2019-05-09T20:00:59.798Z,10.00
2019-05-09T20:05:55.686Z,10.00
2019-05-09T20:11:19.467Z,9.90
2019-05-09T20:16:15.272Z,9.70
2019-05-09T20:21:11.001Z,9.60
2019-05-09T20:26:07.828Z,9.50
2019-05-09T20:31:03.895Z,9.40
2019-05-09T20:36:03.159Z,9.20
2019-05-09T20:40:59.112Z,9.10
2019-05-09T20:45:56.174Z,9.10
2019-05-09T20:50:52.195Z,9.00
2019-05-09T20:55:48.471Z,8.90
2019-05-09T21:00:44.333Z,8.80
2019-05-09T21:05:42.093Z,8.80
2019-05-09T21:10:37.909Z,8.70
2019-05-09T21:15:33.822Z,8.60
2019-05-09T21:20:29.825Z,8.50
2019-05-09T21:25:25.841Z,8.50
2019-05-09T21:30:21.905Z,8.40
2019-05-09T21:35:17.696Z,8.40
2019-05-09T21:40:13.792Z,8.30
2019-05-09T21:45:10.165Z,8.30
2019-05-09T21:50:06.184Z,8.20
2019-05-09T21:55:01.802Z,8.10
2019-05-09T21:59:58.573Z,8.00
2019-05-09T22:04:54.214Z,7.90
2019-05-09T22:09:50.169Z,7.90
2019-05-09T22:14:45.800Z,7.80
2019-05-09T22:19:41.457Z,7.70
2019-05-09T22:24:38.616Z,7.60
2019-05-09T22:29:34.244Z,7.60
2019-05-09T22:34:29.918Z,7.50
2019-05-09T22:39:25.487Z,7.40
2019-05-09T22:44:21.172Z,7.30
2019-05-09T22:49:16.860Z,7.20
2019-05-09T22:54:13.319Z,7.20
2019-05-09T22:59:10.170Z,7.10
2019-05-09T23:04:05.861Z,7.00
2019-05-09T23:09:01.562Z,7.00
2019-05-09T23:13:58.399Z,7.00
2019-05-09T23:18:54.579Z,6.90
2019-05-09T23:23:56.565Z,6.80
2019-05-09T23:28:52.162Z,6.70
2019-05-09T23:33:47.823Z,6.60
2019-05-09T23:39:01.637Z,6.40
2019-05-09T23:43:59.053Z,6.40
2019-05-09T23:48:54.631Z,6.40
2019-05-09T23:53:57.882Z,6.40
2019-05-09T23:59:11.364Z,6.40
